Terminal Aerodrome Forecast
Issued by NWS

Home | Current Version | Previous Version | Graphics & Text | Print | Product List | Glossary On
Versions: 1 2 3 4 5 6 7 8 9 10 11 12 13 14 15 16 17
384
FTUS42 KMHX 280547
TAFOAJ
TAF
KOAJ 280547Z 2806/2906 00000KT 6SM BR SCT200
     FM280800 00000KT 3SM BR FEW003 SCT120
     FM281000 00000KT 1SM BR FEW003 SCT080
     FM281300 VRB03KT 3SM BR BKN070
     FM281400 16005KT P6SM BKN080
      AMD LTD TO CLD VIS AND WIND=

USA.gov is the U.S. government's official web portal to all federal, state and local government web resources and services.